Time;durP1;ratioP1;P1;durP2;ratioP2;P2;SDS_P1;SDS_P2;PMS_P1;PMS_P2;Temp;Humidity;BMP_temperature;BMP_pressure;BME280_temperature;BME280_humidity;BME280_pressure;Samples;Min_cycle;Max_cycle;Signal;HPM_P1;HPM_P2
2022/07/23 00:01:01;;;;;;;7.05;4.25;;;;;;;;;;5090730;28;20113;-54
2022/07/23 00:03:35;;;;;;;6.60;4.10;;;;;;;;;;5093329;28;20473;-55
2022/07/23 00:06:04;;;;;;;8.20;4.95;;;;;;;;;;5092132;28;20054;-55
2022/07/23 00:08:32;;;;;;;6.28;4.57;;;;;;;;;;5093442;28;20086;-54
2022/07/23 00:11:00;;;;;;;7.93;4.85;;;;;;;;;;5092842;28;20744;-55
2022/07/23 00:13:31;;;;;;;7.15;4.60;;;;;;;;;;5093747;28;20048;-54
2022/07/23 00:16:00;;;;;;;7.45;4.70;;;;;;;;;;5094222;28;20051;-54
2022/07/23 00:18:30;;;;;;;9.82;5.88;;;;;;;;;;5093688;28;20056;-52
2022/07/23 00:21:08;;;;;;;6.82;4.80;;;;;;;;;;5093568;28;20369;-52
2022/07/23 00:23:34;;;;;;;8.55;5.18;;;;;;;;;;5093884;28;20384;-52
2022/07/23 00:26:04;;;;;;;9.77;4.93;;;;;;;;;;5093307;28;20048;-54
2022/07/23 00:28:34;;;;;;;8.35;5.22;;;;;;;;;;5093381;28;20056;-53
2022/07/23 00:31:04;;;;;;;9.13;5.18;;;;;;;;;;5092973;28;20143;-55
2022/07/23 00:33:34;;;;;;;6.82;4.85;;;;;;;;;;5092695;28;20135;-54
2022/07/23 00:36:18;;;;;;;7.13;4.97;;;;;;;;;;5093758;28;20046;-52
2022/07/23 00:38:47;;;;;;;9.98;5.25;;;;;;;;;;5093623;28;20055;-55
2022/07/23 00:41:14;;;;;;;7.25;4.70;;;;;;;;;;5093532;28;20059;-54
2022/07/23 00:43:41;;;;;;;6.72;5.32;;;;;;;;;;5076634;28;20052;-53
2022/07/23 00:46:08;;;;;;;7.25;5.40;;;;;;;;;;5112774;28;20050;-54
2022/07/23 00:48:38;;;;;;;8.60;5.30;;;;;;;;;;5113869;28;20051;-55
2022/07/23 00:51:15;;;;;;;8.23;5.45;;;;;;;;;;5113515;28;20094;-53
2022/07/23 00:53:44;;;;;;;11.18;5.65;;;;;;;;;;5093285;28;20082;-54
2022/07/23 00:56:13;;;;;;;6.75;4.90;;;;;;;;;;5093456;28;20071;-54
2022/07/23 00:58:44;;;;;;;7.22;5.43;;;;;;;;;;5093417;28;20048;-50
2022/07/23 01:01:12;;;;;;;9.00;5.47;;;;;;;;;;5092982;28;20052;-54
2022/07/23 01:03:43;;;;;;;8.32;5.68;;;;;;;;;;5093156;28;20044;-54
2022/07/23 01:06:19;;;;;;;10.70;6.38;;;;;;;;;;5092998;28;20134;-54
2022/07/23 01:08:46;;;;;;;10.23;6.32;;;;;;;;;;5093348;28;20044;-54
2022/07/23 01:11:17;;;;;;;8.70;6.35;;;;;;;;;;5092860;28;20058;-55
2022/07/23 01:13:44;;;;;;;10.02;6.63;;;;;;;;;;5092905;28;20113;-53
2022/07/23 01:16:15;;;;;;;10.75;7.10;;;;;;;;;;5093281;28;20048;-54
2022/07/23 01:18:51;;;;;;;9.90;6.57;;;;;;;;;;5097003;28;20139;-54
2022/07/23 01:21:32;;;;;;;10.70;6.68;;;;;;;;;;5096962;28;20048;-53
2022/07/23 01:24:06;;;;;;;12.77;6.90;;;;;;;;;;5097044;28;20048;-52
2022/07/23 01:26:33;;;;;;;10.38;7.50;;;;;;;;;;5097069;28;20044;-55
2022/07/23 01:29:02;;;;;;;12.73;7.13;;;;;;;;;;5096218;28;20396;-54
2022/07/23 01:31:30;;;;;;;9.93;7.00;;;;;;;;;;5096921;28;20054;-54
2022/07/23 01:33:58;;;;;;;8.65;6.75;;;;;;;;;;5095316;28;20226;-54
2022/07/23 01:36:24;;;;;;;10.48;6.72;;;;;;;;;;5096544;28;20040;-53
2022/07/23 01:38:51;;;;;;;9.23;6.47;;;;;;;;;;5096322;28;20486;-54
2022/07/23 01:41:35;;;;;;;9.15;6.32;;;;;;;;;;5096395;28;20441;-52
2022/07/23 01:44:11;;;;;;;8.65;6.35;;;;;;;;;;5084537;28;20047;-52
2022/07/23 01:46:39;;;;;;;11.38;6.55;;;;;;;;;;5117157;28;20056;-51
2022/07/23 01:49:05;;;;;;;8.95;6.70;;;;;;;;;;5116644;28;20054;-55
2022/07/23 01:51:35;;;;;;;9.73;6.28;;;;;;;;;;5107183;27;20117;-53
2022/07/23 01:54:05;;;;;;;9.82;6.00;;;;;;;;;;5076152;28;20138;-52
2022/07/23 01:56:47;;;;;;;8.73;6.13;;;;;;;;;;5076336;28;20072;-55
2022/07/23 01:59:16;;;;;;;9.38;6.82;;;;;;;;;;5078875;28;20080;-54
2022/07/23 02:01:44;;;;;;;8.52;5.85;;;;;;;;;;5096542;28;20048;-54
2022/07/23 02:04:13;;;;;;;7.63;5.82;;;;;;;;;;5096203;28;20468;-54
2022/07/23 02:06:40;;;;;;;11.60;6.00;;;;;;;;;;5096222;28;20113;-54
2022/07/23 02:09:08;;;;;;;8.90;6.07;;;;;;;;;;5096382;28;20075;-54
2022/07/23 02:11:37;;;;;;;9.50;5.95;;;;;;;;;;5096074;28;20472;-54
2022/07/23 02:14:07;;;;;;;12.65;6.15;;;;;;;;;;5095925;28;20368;-55
2022/07/23 02:16:36;;;;;;;10.93;6.47;;;;;;;;;;5096380;28;20076;-55
2022/07/23 02:19:03;;;;;;;8.15;5.43;;;;;;;;;;5095846;28;20087;-55
2022/07/23 02:21:33;;;;;;;9.70;5.82;;;;;;;;;;5095547;28;20476;-52
2022/07/23 02:24:01;;;;;;;9.13;5.57;;;;;;;;;;5095841;28;20095;-54
2022/07/23 02:26:32;;;;;;;10.52;6.32;;;;;;;;;;5095442;28;20482;-54
2022/07/23 02:29:02;;;;;;;8.35;5.93;;;;;;;;;;5094253;28;20139;-54
2022/07/23 02:31:38;;;;;;;9.20;6.32;;;;;;;;;;5095535;28;20116;-54
2022/07/23 02:34:07;;;;;;;7.57;5.63;;;;;;;;;;5095319;28;20047;-52
2022/07/23 02:36:34;;;;;;;8.82;6.43;;;;;;;;;;5095251;28;20051;-51
2022/07/23 02:39:02;;;;;;;9.98;6.30;;;;;;;;;;5094226;28;20066;-54
2022/07/23 02:41:30;;;;;;;10.25;6.97;;;;;;;;;;5095231;28;20048;-54
2022/07/23 02:43:56;;;;;;;8.85;6.18;;;;;;;;;;5082144;28;20051;-55
2022/07/23 02:46:25;;;;;;;9.60;6.13;;;;;;;;;;5116030;28;20048;-55
2022/07/23 02:48:52;;;;;;;8.13;6.05;;;;;;;;;;5115800;28;20077;-54
2022/07/23 02:51:21;;;;;;;8.95;6.13;;;;;;;;;;5113257;28;20062;-53
2022/07/23 02:53:55;;;;;;;9.75;5.75;;;;;;;;;;5095430;28;20056;-53
2022/07/23 02:56:25;;;;;;;9.83;5.93;;;;;;;;;;5095453;28;20122;-50
2022/07/23 02:58:53;;;;;;;12.82;6.40;;;;;;;;;;5095309;28;20067;-53
2022/07/23 03:01:20;;;;;;;9.23;5.82;;;;;;;;;;5075045;28;20080;-53
2022/07/23 03:03:52;;;;;;;9.38;5.75;;;;;;;;;;5074845;28;20048;-54
2022/07/23 03:06:19;;;;;;;7.47;5.60;;;;;;;;;;5074358;28;20044;-52
2022/07/23 03:08:49;;;;;;;10.25;6.20;;;;;;;;;;5074601;28;20476;-51
2022/07/23 03:11:16;;;;;;;10.75;5.63;;;;;;;;;;5074410;28;20067;-52
2022/07/23 03:13:46;;;;;;;7.10;5.30;;;;;;;;;;5076035;28;20048;-51
2022/07/23 03:16:16;;;;;;;9.70;5.30;;;;;;;;;;5094904;28;20056;-54
2022/07/23 03:18:44;;;;;;;15.18;6.35;;;;;;;;;;5094949;28;20048;-54
2022/07/23 03:21:21;;;;;;;7.28;5.30;;;;;;;;;;5094685;28;20067;-51
2022/07/23 03:23:51;;;;;;;9.05;5.53;;;;;;;;;;5094757;28;20366;-50
2022/07/23 03:26:19;;;;;;;8.02;5.78;;;;;;;;;;5095090;28;20044;-51
2022/07/23 03:28:47;;;;;;;10.10;5.85;;;;;;;;;;5094088;28;20389;-52
2022/07/23 03:31:14;;;;;;;8.57;5.55;;;;;;;;;;5094740;28;20172;-50
2022/07/23 03:33:44;;;;;;;8.73;4.88;;;;;;;;;;5094303;28;20358;-54
2022/07/23 03:36:19;;;;;;;8.23;5.18;;;;;;;;;;5094494;28;20044;-52
2022/07/23 03:38:46;;;;;;;7.55;5.43;;;;;;;;;;5094596;28;20130;-54
2022/07/23 03:41:16;;;;;;;9.77;5.50;;;;;;;;;;5094053;28;20048;-55
2022/07/23 03:43:44;;;;;;;10.23;4.95;;;;;;;;;;5090995;28;20056;-54
2022/07/23 03:46:13;;;;;;;7.88;5.00;;;;;;;;;;5093031;28;20144;-55
2022/07/23 03:48:41;;;;;;;8.43;5.10;;;;;;;;;;5093699;28;20457;-54
2022/07/23 03:51:09;;;;;;;13.65;5.28;;;;;;;;;;5093182;28;20044;-55
2022/07/23 03:53:52;;;;;;;7.47;4.75;;;;;;;;;;5073818;28;20060;-51
2022/07/23 03:56:19;;;;;;;8.30;4.85;;;;;;;;;;5073991;28;20086;-54
2022/07/23 03:58:49;;;;;;;8.00;4.72;;;;;;;;;;5073861;28;20052;-54
2022/07/23 04:01:20;;;;;;;8.30;5.20;;;;;;;;;;5073831;28;20048;-54
2022/07/23 04:03:47;;;;;;;6.65;4.30;;;;;;;;;;5073515;28;20060;-53
2022/07/23 04:06:16;;;;;;;7.75;4.88;;;;;;;;;;5073334;28;20056;-53
2022/07/23 04:08:46;;;;;;;7.90;4.57;;;;;;;;;;5092464;28;20052;-55
2022/07/23 04:11:16;;;;;;;7.68;4.68;;;;;;;;;;5084958;28;20052;-54
2022/07/23 04:13:44;;;;;;;7.60;4.68;;;;;;;;;;5073652;28;20067;-54
2022/07/23 04:16:14;;;;;;;7.40;4.70;;;;;;;;;;5072543;28;20055;-53
2022/07/23 04:18:42;;;;;;;8.77;4.80;;;;;;;;;;5073531;28;20089;-55
2022/07/23 04:21:11;;;;;;;7.10;4.80;;;;;;;;;;5073033;28;20059;-54
2022/07/23 04:23:38;;;;;;;6.45;4.47;;;;;;;;;;5073282;28;20056;-55
2022/07/23 04:26:12;;;;;;;11.82;5.47;;;;;;;;;;5072841;28;20067;-54
2022/07/23 04:28:39;;;;;;;6.70;4.65;;;;;;;;;;5080628;28;20059;-54
2022/07/23 04:31:09;;;;;;;6.47;4.70;;;;;;;;;;5093260;28;20063;-55
2022/07/23 04:33:38;;;;;;;7.43;4.80;;;;;;;;;;5092395;28;20048;-55
2022/07/23 04:36:04;;;;;;;7.10;4.45;;;;;;;;;;5093057;28;20457;-51
2022/07/23 04:38:34;;;;;;;9.48;5.40;;;;;;;;;;5093656;28;20048;-52
2022/07/23 04:41:04;;;;;;;9.43;4.95;;;;;;;;;;5093538;28;20091;-55
2022/07/23 04:43:47;;;;;;;8.60;5.20;;;;;;;;;;5075951;28;20072;-51
2022/07/23 04:46:18;;;;;;;7.90;5.22;;;;;;;;;;5073279;28;20052;-54
2022/07/23 04:48:47;;;;;;;7.07;4.80;;;;;;;;;;5073293;28;20044;-54
2022/07/23 04:51:15;;;;;;;9.02;4.70;;;;;;;;;;5072211;28;20576;-55
2022/07/23 04:53:42;;;;;;;9.50;4.60;;;;;;;;;;5073179;28;20045;-54
2022/07/23 04:56:10;;;;;;;9.38;4.80;;;;;;;;;;5072911;28;20060;-54
2022/07/23 04:58:54;;;;;;;6.30;4.95;;;;;;;;;;5073061;28;20052;-54
2022/07/23 05:01:24;;;;;;;6.33;4.27;;;;;;;;;;5072739;28;20055;-55
2022/07/23 05:03:52;;;;;;;8.02;4.97;;;;;;;;;;5072480;28;20136;-53
2022/07/23 05:06:22;;;;;;;6.68;4.53;;;;;;;;;;5074525;28;20374;-55
2022/07/23 05:08:50;;;;;;;7.82;4.40;;;;;;;;;;5093250;28;20048;-51
2022/07/23 05:11:17;;;;;;;7.47;4.30;;;;;;;;;;5092888;28;20052;-50
2022/07/23 05:13:48;;;;;;;7.30;4.72;;;;;;;;;;5093331;28;20102;-51
2022/07/23 05:16:19;;;;;;;8.65;4.45;;;;;;;;;;5092971;28;20058;-51
2022/07/23 05:18:46;;;;;;;6.57;4.30;;;;;;;;;;5093177;28;20048;-52
2022/07/23 05:21:16;;;;;;;5.72;3.85;;;;;;;;;;5093162;28;20048;-52
2022/07/23 05:23:46;;;;;;;6.40;4.20;;;;;;;;;;5092837;28;20106;-51
2022/07/23 05:26:14;;;;;;;8.75;4.43;;;;;;;;;;5092711;28;20483;-54
2022/07/23 05:28:42;;;;;;;6.40;3.88;;;;;;;;;;5087779;28;20060;-52
2022/07/23 05:31:19;;;;;;;6.70;4.20;;;;;;;;;;5092667;28;20047;-52
2022/07/23 05:33:47;;;;;;;4.85;3.83;;;;;;;;;;5093159;28;20048;-55
2022/07/23 05:36:15;;;;;;;10.85;4.00;;;;;;;;;;5092410;28;20051;-53
2022/07/23 05:38:44;;;;;;;6.85;3.97;;;;;;;;;;5092481;28;20059;-54
2022/07/23 05:41:12;;;;;;;6.50;3.72;;;;;;;;;;5092748;28;20071;-53
2022/07/23 05:43:40;;;;;;;4.75;3.28;;;;;;;;;;5075732;28;20079;-50
2022/07/23 05:46:08;;;;;;;6.35;3.35;;;;;;;;;;5112767;28;20058;-52
2022/07/23 05:48:42;;;;;;;9.00;3.30;;;;;;;;;;5112902;28;20090;-52
2022/07/23 05:51:10;;;;;;;7.07;3.08;;;;;;;;;;5112220;28;20055;-51
2022/07/23 05:53:39;;;;;;;7.93;3.28;;;;;;;;;;5092199;28;20059;-52
2022/07/23 05:56:10;;;;;;;5.50;2.67;;;;;;;;;;5092488;28;20397;-51
2022/07/23 05:58:39;;;;;;;3.70;2.85;;;;;;;;;;5091973;28;20087;-51
2022/07/23 06:01:11;;;;;;;5.05;3.25;;;;;;;;;;5092192;28;20051;-51
2022/07/23 06:03:55;;;;;;;5.65;3.17;;;;;;;;;;5093085;28;20051;-55
2022/07/23 06:06:22;;;;;;;3.58;2.67;;;;;;;;;;5096352;28;20109;-52
2022/07/23 06:08:51;;;;;;;5.80;2.95;;;;;;;;;;5096171;28;20056;-55
2022/07/23 06:11:21;;;;;;;7.03;3.17;;;;;;;;;;5079984;28;20547;-55
2022/07/23 06:16:29;;;;;;;6.20;2.88;;;;;;;;;;5075902;28;20056;-55
2022/07/23 06:19:06;;;;;;;6.72;2.80;;;;;;;;;;5075915;28;20048;-55
2022/07/23 06:21:33;;;;;;;5.60;3.30;;;;;;;;;;5075669;28;20149;-53
2022/07/23 06:24:00;;;;;;;8.65;3.00;;;;;;;;;;5075846;28;20063;-54
2022/07/23 06:26:26;;;;;;;6.55;2.65;;;;;;;;;;5075580;28;20053;-50
2022/07/23 06:28:54;;;;;;;4.78;3.03;;;;;;;;;;5084452;28;20056;-51
2022/07/23 06:31:21;;;;;;;6.60;3.25;;;;;;;;;;5095650;28;20382;-51
2022/07/23 06:33:48;;;;;;;6.28;3.03;;;;;;;;;;5095772;28;20055;-51
2022/07/23 06:36:28;;;;;;;7.38;3.00;;;;;;;;;;5095641;28;20052;-55
2022/07/23 06:39:04;;;;;;;5.47;3.13;;;;;;;;;;5095806;28;20052;-53
2022/07/23 06:41:34;;;;;;;5.00;2.65;;;;;;;;;;5094792;28;20056;-54
2022/07/23 06:44:04;;;;;;;5.03;3.00;;;;;;;;;;5083145;28;20048;-55
2022/07/23 06:46:33;;;;;;;7.13;3.40;;;;;;;;;;5115853;28;20047;-53
2022/07/23 06:49:04;;;;;;;6.25;2.90;;;;;;;;;;5116272;28;20051;-53
2022/07/23 06:51:36;;;;;;;5.07;2.95;;;;;;;;;;5111761;28;20047;-54
2022/07/23 06:54:02;;;;;;;5.50;3.30;;;;;;;;;;5095575;28;20043;-55
2022/07/23 06:56:32;;;;;;;6.35;2.95;;;;;;;;;;5094941;28;20051;-55
2022/07/23 07:01:46;;;;;;;7.05;3.03;;;;;;;;;;5095065;28;20501;-54
2022/07/23 07:04:15;;;;;;;5.72;3.35;;;;;;;;;;5094786;28;20059;-53
2022/07/23 07:06:45;;;;;;;6.15;3.08;;;;;;;;;;5095134;28;20097;-54
2022/07/23 07:09:14;;;;;;;5.65;3.10;;;;;;;;;;5094645;28;20064;-55
2022/07/23 07:11:46;;;;;;;6.47;3.55;;;;;;;;;;5095188;28;20072;-55
2022/07/23 07:14:13;;;;;;;6.28;3.00;;;;;;;;;;5094807;28;20044;-55
2022/07/23 07:16:40;;;;;;;5.03;2.85;;;;;;;;;;5094823;28;20520;-55
2022/07/23 07:19:20;;;;;;;7.07;3.22;;;;;;;;;;5094852;28;20051;-54
2022/07/23 07:21:51;;;;;;;5.28;3.10;;;;;;;;;;5094830;28;20143;-55
2022/07/23 07:24:19;;;;;;;6.32;3.38;;;;;;;;;;5094826;28;20047;-55
2022/07/23 07:26:47;;;;;;;4.60;3.17;;;;;;;;;;5094572;28;20047;-53
2022/07/23 07:29:14;;;;;;;11.15;3.40;;;;;;;;;;5094266;28;20109;-54
2022/07/23 07:31:49;;;;;;;6.93;3.70;;;;;;;;;;5093966;28;20055;-55
2022/07/23 07:34:18;;;;;;;5.80;3.22;;;;;;;;;;5093901;28;20052;-55
2022/07/23 07:36:45;;;;;;;8.40;4.43;;;;;;;;;;5094294;28;20516;-55
2022/07/23 07:39:12;;;;;;;6.53;3.38;;;;;;;;;;5092258;28;20380;-55
2022/07/23 07:41:42;;;;;;;7.35;3.47;;;;;;;;;;5092507;28;20055;-55
2022/07/23 07:44:11;;;;;;;8.18;3.50;;;;;;;;;;5083961;28;20503;-53
2022/07/23 07:46:37;;;;;;;8.32;4.20;;;;;;;;;;5114594;28;20048;-55
2022/07/23 07:49:06;;;;;;;7.43;3.72;;;;;;;;;;5088039;28;20048;-56
2022/07/23 07:51:36;;;;;;;8.90;4.05;;;;;;;;;;5088394;28;20044;-52
2022/07/23 07:54:04;;;;;;;5.65;3.58;;;;;;;;;;5097814;28;20114;-53
2022/07/23 07:56:34;;;;;;;7.25;4.18;;;;;;;;;;5093565;28;20048;-52
2022/07/23 07:59:02;;;;;;;8.30;3.75;;;;;;;;;;5093268;28;20051;-54
2022/07/23 08:01:28;;;;;;;5.60;2.90;;;;;;;;;;5096059;28;20047;-53
2022/07/23 08:03:56;;;;;;;5.40;3.05;;;;;;;;;;5113929;28;20070;-54
2022/07/23 08:06:24;;;;;;;7.05;3.80;;;;;;;;;;5113879;28;20457;-55
2022/07/23 08:08:51;;;;;;;4.47;3.33;;;;;;;;;;5114048;28;20069;-56
2022/07/23 08:11:17;;;;;;;12.10;3.65;;;;;;;;;;5113492;28;20051;-53
2022/07/23 08:13:45;;;;;;;4.88;3.50;;;;;;;;;;5113088;28;20085;-56
2022/07/23 08:16:12;;;;;;;5.40;3.58;;;;;;;;;;5099670;28;20047;-52
2022/07/23 08:18:40;;;;;;;4.97;3.55;;;;;;;;;;5112807;28;20121;-54
2022/07/23 08:21:09;;;;;;;17.95;4.13;;;;;;;;;;5113044;28;20043;-54
2022/07/23 08:23:37;;;;;;;5.13;2.95;;;;;;;;;;5113396;28;20551;-53
2022/07/23 08:26:06;;;;;;;4.93;3.60;;;;;;;;;;5113036;28;20051;-55
2022/07/23 08:28:36;;;;;;;7.85;3.90;;;;;;;;;;5106253;28;20083;-57
2022/07/23 08:31:06;;;;;;;6.45;3.25;;;;;;;;;;5100912;28;20083;-57
2022/07/23 08:33:34;;;;;;;10.43;3.53;;;;;;;;;;5113508;28;20075;-56
2022/07/23 08:36:02;;;;;;;6.15;3.65;;;;;;;;;;5099307;28;20368;-56
2022/07/23 08:38:29;;;;;;;8.77;3.55;;;;;;;;;;5092341;28;20524;-56
2022/07/23 08:40:57;;;;;;;8.88;3.20;;;;;;;;;;5100826;28;20047;-52
2022/07/23 08:43:24;;;;;;;5.88;3.28;;;;;;;;;;5095441;28;20055;-55
2022/07/23 08:45:52;;;;;;;7.82;3.28;;;;;;;;;;5111827;28;20150;-56
2022/07/23 08:48:20;;;;;;;9.55;3.72;;;;;;;;;;5113188;28;20130;-55
2022/07/23 08:51:01;;;;;;;5.80;3.47;;;;;;;;;;5112494;28;20052;-53
2022/07/23 08:53:29;;;;;;;9.07;3.55;;;;;;;;;;5108546;28;20063;-51
2022/07/23 08:56:01;;;;;;;9.63;3.75;;;;;;;;;;5112932;28;20047;-51
2022/07/23 08:58:33;;;;;;;5.40;3.47;;;;;;;;;;5104735;28;20055;-54
2022/07/23 09:01:01;;;;;;;8.63;3.83;;;;;;;;;;5103341;28;20051;-55
2022/07/23 09:03:40;;;;;;;5.68;3.90;;;;;;;;;;5111896;28;20484;-51
2022/07/23 09:06:07;;;;;;;5.68;3.70;;;;;;;;;;5112585;28;20096;-52
2022/07/23 09:08:38;;;;;;;6.65;3.55;;;;;;;;;;5113160;28;20065;-53
2022/07/23 09:11:08;;;;;;;8.20;3.55;;;;;;;;;;5112636;28;20056;-53
2022/07/23 09:13:40;;;;;;;7.03;3.67;;;;;;;;;;5112792;28;20075;-54
2022/07/23 09:16:08;;;;;;;7.47;3.60;;;;;;;;;;5107580;28;20510;-52
2022/07/23 09:18:47;;;;;;;5.38;3.35;;;;;;;;;;5090973;28;20062;-51
2022/07/23 09:21:20;;;;;;;7.22;3.97;;;;;;;;;;5105653;28;20429;-51
2022/07/23 09:23:57;;;;;;;21.97;5.53;;;;;;;;;;5111271;28;20052;-53
2022/07/23 09:26:31;;;;;;;7.15;3.80;;;;;;;;;;5105159;28;20481;-53
2022/07/23 09:28:59;;;;;;;5.57;3.60;;;;;;;;;;5095566;28;20563;-55
2022/07/23 09:31:28;;;;;;;5.85;3.72;;;;;;;;;;5112714;28;20047;-51
2022/07/23 09:34:09;;;;;;;6.70;3.78;;;;;;;;;;5112412;28;20380;-51
2022/07/23 09:36:39;;;;;;;6.97;3.88;;;;;;;;;;5113044;28;20086;-52
2022/07/23 09:39:09;;;;;;;7.82;3.65;;;;;;;;;;5107245;28;20462;-55
2022/07/23 09:41:41;;;;;;;7.40;3.72;;;;;;;;;;5101027;28;20051;-52
2022/07/23 09:44:11;;;;;;;6.55;3.88;;;;;;;;;;5111151;28;20494;-55
2022/07/23 09:46:44;;;;;;;7.60;3.58;;;;;;;;;;5095771;28;20056;-51
2022/07/23 09:49:22;;;;;;;9.13;4.20;;;;;;;;;;5107440;28;20047;-51
2022/07/23 09:51:57;;;;;;;4.68;3.60;;;;;;;;;;5094970;28;20136;-50
2022/07/23 09:54:30;;;;;;;6.22;3.45;;;;;;;;;;5116606;28;20052;-54
2022/07/23 09:56:59;;;;;;;5.40;3.53;;;;;;;;;;5116691;28;20054;-54
2022/07/23 09:59:27;;;;;;;6.45;3.50;;;;;;;;;;5106965;28;20060;-54
2022/07/23 10:01:59;;;;;;;6.60;3.78;;;;;;;;;;5087527;28;20079;-52
2022/07/23 10:04:41;;;;;;;5.50;3.47;;;;;;;;;;5082631;28;20062;-54
2022/07/23 10:07:11;;;;;;;5.40;3.60;;;;;;;;;;5089954;28;20056;-54
2022/07/23 10:09:41;;;;;;;4.43;3.60;;;;;;;;;;5116175;28;20112;-53
2022/07/23 10:14:54;;;;;;;5.60;4.00;;;;;;;;;;5095905;28;20051;-50
2022/07/23 10:17:22;;;;;;;4.82;3.90;;;;;;;;;;5084200;28;20060;-50
2022/07/23 10:19:52;;;;;;;6.07;3.53;;;;;;;;;;5075649;28;20389;-50
2022/07/23 10:22:23;;;;;;;6.00;3.53;;;;;;;;;;5075191;28;20384;-50
2022/07/23 10:25:06;;;;;;;5.60;3.63;;;;;;;;;;5093078;28;20047;-54
2022/07/23 10:28:06;;;;;;;5.65;3.75;;;;;;;;;;5093776;28;20509;-49
2022/07/23 10:30:40;;;;;;;5.93;3.60;;;;;;;;;;5013450;28;20058;-49
2022/07/23 10:33:16;;;;;;;6.38;3.30;;;;;;;;;;5013733;28;20135;-49
2022/07/23 10:35:53;;;;;;;18.42;5.70;;;;;;;;;;5071326;28;20047;-50
2022/07/23 10:38:23;;;;;;;8.93;4.38;;;;;;;;;;5115677;28;20456;-50
2022/07/23 10:41:01;;;;;;;6.70;4.00;;;;;;;;;;5107136;28;20052;-50
2022/07/23 10:43:32;;;;;;;6.00;4.30;;;;;;;;;;5095066;28;20063;-49
2022/07/23 10:46:25;;;;;;;9.57;4.20;;;;;;;;;;5094979;28;20054;-49
2022/07/23 10:49:10;;;;;;;6.90;3.67;;;;;;;;;;5093898;28;20334;-51
2022/07/23 10:51:40;;;;;;;6.95;4.32;;;;;;;;;;5094493;28;20139;-49
2022/07/23 10:54:24;;;;;;;5.28;3.80;;;;;;;;;;5095605;28;20062;-50
2022/07/23 10:57:09;;;;;;;6.17;4.10;;;;;;;;;;5094287;28;20135;-49
2022/07/23 10:59:55;;;;;;;5.90;3.97;;;;;;;;;;5094163;28;20294;-53
2022/07/23 11:02:31;;;;;;;7.03;4.30;;;;;;;;;;5095250;28;20051;-52
2022/07/23 11:05:00;;;;;;;5.93;3.88;;;;;;;;;;5094431;28;20062;-49
2022/07/23 11:08:07;;;;;;;4.93;3.92;;;;;;;;;;5091651;28;20059;-49
2022/07/23 11:10:38;;;;;;;8.27;4.45;;;;;;;;;;5083660;28;20457;-50
2022/07/23 11:13:24;;;;;;;8.13;4.47;;;;;;;;;;5086006;28;20080;-51
2022/07/23 11:16:05;;;;;;;7.80;4.43;;;;;;;;;;5094478;28;20052;-49
2022/07/23 11:19:02;;;;;;;6.25;4.38;;;;;;;;;;5094561;28;20048;-51
2022/07/23 11:21:47;;;;;;;9.13;4.35;;;;;;;;;;5094522;28;20071;-51
2022/07/23 11:24:30;;;;;;;6.03;4.68;;;;;;;;;;5094415;28;20105;-53
2022/07/23 11:27:02;;;;;;;5.55;4.13;;;;;;;;;;5094803;28;20070;-50
2022/07/23 11:29:48;;;;;;;12.35;4.82;;;;;;;;;;5094077;28;20109;-50
2022/07/23 11:32:45;;;;;;;8.27;5.15;;;;;;;;;;5094135;28;20442;-54
2022/07/23 11:35:33;;;;;;;9.90;4.63;;;;;;;;;;5094047;28;20044;-54
2022/07/23 11:38:08;;;;;;;6.18;4.93;;;;;;;;;;5094407;28;20062;-54
2022/07/23 11:40:45;;;;;;;7.85;4.50;;;;;;;;;;5094078;28;20154;-53
2022/07/23 11:43:12;;;;;;;10.25;4.75;;;;;;;;;;5078588;28;20132;-53
2022/07/23 11:45:50;;;;;;;8.57;4.60;;;;;;;;;;5109644;28;20044;-54
2022/07/23 11:48:26;;;;;;;7.43;5.30;;;;;;;;;;5106157;28;20055;-51
2022/07/23 11:50:57;;;;;;;11.35;5.35;;;;;;;;;;5094393;28;20055;-53
2022/07/23 11:53:24;;;;;;;8.90;5.35;;;;;;;;;;5094184;28;20154;-53
2022/07/23 11:55:55;;;;;;;8.57;5.55;;;;;;;;;;5087586;28;20126;-54
2022/07/23 11:58:26;;;;;;;10.10;5.65;;;;;;;;;;5082438;28;20489;-53
2022/07/23 12:00:58;;;;;;;9.10;5.20;;;;;;;;;;5082471;28;20059;-55
2022/07/23 12:03:28;;;;;;;6.03;4.72;;;;;;;;;;5074434;28;20044;-53
2022/07/23 12:05:57;;;;;;;7.00;4.47;;;;;;;;;;5078232;28;20051;-50
2022/07/23 12:08:25;;;;;;;9.15;4.68;;;;;;;;;;5071991;28;20135;-51
2022/07/23 12:11:09;;;;;;;8.27;4.95;;;;;;;;;;5072210;28;20048;-51
2022/07/23 12:13:39;;;;;;;5.85;4.60;;;;;;;;;;5072579;28;20049;-52
2022/07/23 12:16:06;;;;;;;7.18;4.32;;;;;;;;;;5071278;28;20088;-51
2022/07/23 12:18:33;;;;;;;7.93;4.25;;;;;;;;;;5071046;28;20052;-51
2022/07/23 12:21:05;;;;;;;7.35;4.45;;;;;;;;;;5072120;28;20056;-53
2022/07/23 12:23:33;;;;;;;7.20;4.82;;;;;;;;;;5071120;28;20420;-54
2022/07/23 12:26:08;;;;;;;5.70;3.88;;;;;;;;;;5071798;28;20590;-52
2022/07/23 12:28:39;;;;;;;6.03;4.00;;;;;;;;;;5078673;28;20056;-51
2022/07/23 12:31:13;;;;;;;6.68;4.35;;;;;;;;;;5092237;28;20071;-54
2022/07/23 12:33:43;;;;;;;5.68;4.50;;;;;;;;;;5092236;28;20067;-54
2022/07/23 12:36:11;;;;;;;5.88;4.18;;;;;;;;;;5092005;28;20048;-51
2022/07/23 12:38:41;;;;;;;7.47;4.22;;;;;;;;;;5093432;28;20056;-53
2022/07/23 12:41:11;;;;;;;5.40;4.38;;;;;;;;;;5093187;28;20054;-54
2022/07/23 12:43:43;;;;;;;7.43;4.70;;;;;;;;;;5074791;28;20091;-55
2022/07/23 12:46:19;;;;;;;8.43;4.45;;;;;;;;;;5073476;28;20052;-55
2022/07/23 12:48:51;;;;;;;6.75;4.43;;;;;;;;;;5072657;28;20492;-55
2022/07/23 12:51:21;;;;;;;6.95;4.00;;;;;;;;;;5073037;28;20056;-52
2022/07/23 12:53:50;;;;;;;6.07;3.78;;;;;;;;;;5073195;28;20080;-54
2022/07/23 12:56:20;;;;;;;9.20;4.72;;;;;;;;;;5073084;28;20045;-53
2022/07/23 12:58:51;;;;;;;5.90;3.90;;;;;;;;;;5072916;28;20454;-53
2022/07/23 13:01:27;;;;;;;7.53;3.88;;;;;;;;;;5093110;28;20044;-54
2022/07/23 13:03:58;;;;;;;5.68;3.55;;;;;;;;;;5093182;28;20056;-55
2022/07/23 13:06:27;;;;;;;7.13;3.75;;;;;;;;;;5093389;28;20055;-54
2022/07/23 13:08:56;;;;;;;5.93;3.80;;;;;;;;;;5092913;28;20346;-55
2022/07/23 13:11:26;;;;;;;6.20;3.97;;;;;;;;;;5093077;28;20540;-55
2022/07/23 13:13:53;;;;;;;6.05;3.35;;;;;;;;;;5096172;28;20762;-55
2022/07/23 13:16:23;;;;;;;5.43;3.67;;;;;;;;;;5097005;28;20048;-55
2022/07/23 13:18:52;;;;;;;5.78;3.63;;;;;;;;;;5097270;28;20048;-55
2022/07/23 13:21:22;;;;;;;6.57;3.92;;;;;;;;;;5096764;28;20052;-55
2022/07/23 13:23:49;;;;;;;5.13;3.58;;;;;;;;;;5097622;28;20055;-54
2022/07/23 13:26:18;;;;;;;5.93;3.65;;;;;;;;;;5097283;28;20055;-55
2022/07/23 13:29:00;;;;;;;3.97;3.45;;;;;;;;;;5096555;28;20044;-55
2022/07/23 13:31:28;;;;;;;5.40;4.20;;;;;;;;;;5097109;28;20056;-55
2022/07/23 13:33:57;;;;;;;5.00;3.42;;;;;;;;;;5096519;28;20055;-55
2022/07/23 13:36:24;;;;;;;9.02;4.03;;;;;;;;;;5114213;28;20047;-55
2022/07/23 13:38:52;;;;;;;4.65;3.58;;;;;;;;;;5116984;28;20047;-54
2022/07/23 13:41:22;;;;;;;6.38;3.85;;;;;;;;;;5104298;28;20372;-54
2022/07/23 13:43:58;;;;;;;6.38;3.92;;;;;;;;;;5098829;28;20051;-55
2022/07/23 13:46:27;;;;;;;6.88;3.83;;;;;;;;;;5117352;28;20055;-55
2022/07/23 13:48:57;;;;;;;5.72;3.72;;;;;;;;;;5116803;28;20059;-55
2022/07/23 13:51:32;;;;;;;5.78;4.10;;;;;;;;;;5113775;28;20051;-55
2022/07/23 13:54:02;;;;;;;5.60;3.83;;;;;;;;;;5096175;28;20071;-55
2022/07/23 13:56:31;;;;;;;4.03;3.25;;;;;;;;;;5096983;28;20072;-54
2022/07/23 13:59:03;;;;;;;6.35;3.50;;;;;;;;;;5095242;28;20052;-54
2022/07/23 14:01:33;;;;;;;5.10;3.90;;;;;;;;;;5096509;28;20040;-55
2022/07/23 14:04:02;;;;;;;4.90;3.53;;;;;;;;;;5096524;28;20052;-55
2022/07/23 14:06:32;;;;;;;4.75;3.78;;;;;;;;;;5096001;28;20051;-54
2022/07/23 14:08:58;;;;;;;9.25;3.75;;;;;;;;;;5096119;28;20055;-53
2022/07/23 14:11:25;;;;;;;5.05;3.70;;;;;;;;;;5096425;28;20056;-53
2022/07/23 14:13:56;;;;;;;4.60;4.00;;;;;;;;;;5094969;28;20069;-51
2022/07/23 14:16:27;;;;;;;4.70;3.25;;;;;;;;;;5096518;28;20051;-52
2022/07/23 14:18:54;;;;;;;4.35;3.22;;;;;;;;;;5096195;28;20151;-53
2022/07/23 14:21:22;;;;;;;4.38;3.45;;;;;;;;;;5095729;28;20465;-52
2022/07/23 14:23:49;;;;;;;4.22;3.33;;;;;;;;;;5090019;28;20052;-52
2022/07/23 14:28:57;;;;;;;4.50;3.30;;;;;;;;;;5085081;28;20055;-55
2022/07/23 14:31:29;;;;;;;4.65;3.15;;;;;;;;;;5078948;28;20048;-55
2022/07/23 14:33:57;;;;;;;4.05;3.10;;;;;;;;;;5073810;28;20563;-54
2022/07/23 14:36:27;;;;;;;5.43;3.22;;;;;;;;;;5107928;28;20401;-55
2022/07/23 14:38:55;;;;;;;5.75;3.88;;;;;;;;;;5115013;28;20051;-55
2022/07/23 14:41:25;;;;;;;4.32;3.47;;;;;;;;;;5101519;28;20067;-55
2022/07/23 14:46:50;;;;;;;5.63;4.20;;;;;;;;;;5115548;28;20051;-55
2022/07/23 14:49:19;;;;;;;5.35;3.65;;;;;;;;;;5072920;28;20127;-53
2022/07/23 14:51:49;;;;;;;5.10;3.53;;;;;;;;;;5075387;28;20060;-55
2022/07/23 14:54:17;;;;;;;5.70;4.10;;;;;;;;;;5084845;28;20048;-55
2022/07/23 14:56:46;;;;;;;4.68;3.67;;;;;;;;;;5080799;28;20052;-55
2022/07/23 14:59:23;;;;;;;4.47;3.50;;;;;;;;;;5075919;28;20102;-55
2022/07/23 15:01:56;;;;;;;5.32;3.78;;;;;;;;;;5079314;28;20063;-55
2022/07/23 15:04:26;;;;;;;7.55;3.78;;;;;;;;;;5075148;28;20052;-55
2022/07/23 15:06:55;;;;;;;4.82;3.85;;;;;;;;;;5083591;28;20122;-53
2022/07/23 15:09:26;;;;;;;6.05;4.40;;;;;;;;;;5086257;28;20055;-55
2022/07/23 15:11:55;;;;;;;5.07;3.65;;;;;;;;;;5094816;28;20052;-55
2022/07/23 15:14:22;;;;;;;5.97;4.25;;;;;;;;;;5082038;28;20453;-55
2022/07/23 15:16:53;;;;;;;6.43;3.97;;;;;;;;;;5085280;28;20476;-54